sensor_id;sensor_type;location;lat;lon;timestamp;P1;durP1;ratioP1;P2;durP2;ratioP2
21356;SDS011;10836;53.068;18.234;2023-09-07T00:01:00;9.95;;;6.75;;
21356;SDS011;10836;53.068;18.234;2023-09-07T00:03:38;11.38;;;6.15;;
21356;SDS011;10836;53.068;18.234;2023-09-07T00:06:08;10.25;;;6.40;;
21356;SDS011;10836;53.068;18.234;2023-09-07T00:08:35;8.95;;;6.07;;
21356;SDS011;10836;53.068;18.234;2023-09-07T00:11:03;9.80;;;6.13;;
21356;SDS011;10836;53.068;18.234;2023-09-07T00:13:31;9.70;;;6.38;;
21356;SDS011;10836;53.068;18.234;2023-09-07T00:15:59;10.30;;;6.57;;
21356;SDS011;10836;53.068;18.234;2023-09-07T00:18:28;9.15;;;6.75;;
21356;SDS011;10836;53.068;18.234;2023-09-07T00:20:57;11.25;;;7.03;;
21356;SDS011;10836;53.068;18.234;2023-09-07T00:23:24;13.43;;;7.20;;
21356;SDS011;10836;53.068;18.234;2023-09-07T00:25:51;11.25;;;7.55;;
21356;SDS011;10836;53.068;18.234;2023-09-07T00:28:18;10.45;;;7.18;;
21356;SDS011;10836;53.068;18.234;2023-09-07T00:30:45;13.20;;;8.05;;
21356;SDS011;10836;53.068;18.234;2023-09-07T00:33:12;11.90;;;7.32;;
21356;SDS011;10836;53.068;18.234;2023-09-07T00:35:39;11.88;;;6.95;;
21356;SDS011;10836;53.068;18.234;2023-09-07T00:38:06;9.48;;;6.80;;
21356;SDS011;10836;53.068;18.234;2023-09-07T00:40:34;12.02;;;7.28;;
21356;SDS011;10836;53.068;18.234;2023-09-07T00:43:01;9.68;;;6.47;;
21356;SDS011;10836;53.068;18.234;2023-09-07T00:45:29;12.85;;;7.07;;
21356;SDS011;10836;53.068;18.234;2023-09-07T00:47:56;8.35;;;5.90;;
21356;SDS011;10836;53.068;18.234;2023-09-07T00:50:24;10.23;;;6.75;;
21356;SDS011;10836;53.068;18.234;2023-09-07T00:52:51;9.35;;;6.72;;
21356;SDS011;10836;53.068;18.234;2023-09-07T00:55:19;11.18;;;6.43;;
21356;SDS011;10836;53.068;18.234;2023-09-07T00:57:46;11.52;;;7.28;;
21356;SDS011;10836;53.068;18.234;2023-09-07T01:00:13;8.77;;;7.00;;
21356;SDS011;10836;53.068;18.234;2023-09-07T01:02:40;14.63;;;7.38;;
21356;SDS011;10836;53.068;18.234;2023-09-07T01:05:12;9.98;;;6.55;;
21356;SDS011;10836;53.068;18.234;2023-09-07T01:07:50;10.15;;;6.60;;
21356;SDS011;10836;53.068;18.234;2023-09-07T01:10:23;11.32;;;6.20;;
21356;SDS011;10836;53.068;18.234;2023-09-07T01:12:50;8.88;;;6.10;;
21356;SDS011;10836;53.068;18.234;2023-09-07T01:15:17;12.63;;;6.93;;
21356;SDS011;10836;53.068;18.234;2023-09-07T01:17:44;10.88;;;7.28;;
21356;SDS011;10836;53.068;18.234;2023-09-07T01:20:12;8.70;;;6.35;;
21356;SDS011;10836;53.068;18.234;2023-09-07T01:22:44;10.10;;;6.63;;
21356;SDS011;10836;53.068;18.234;2023-09-07T01:25:11;11.68;;;7.20;;
21356;SDS011;10836;53.068;18.234;2023-09-07T01:27:39;9.40;;;7.00;;
21356;SDS011;10836;53.068;18.234;2023-09-07T01:30:07;9.70;;;6.65;;
21356;SDS011;10836;53.068;18.234;2023-09-07T01:32:34;15.20;;;7.72;;
21356;SDS011;10836;53.068;18.234;2023-09-07T01:35:02;13.15;;;7.55;;
21356;SDS011;10836;53.068;18.234;2023-09-07T01:37:33;12.25;;;8.02;;
21356;SDS011;10836;53.068;18.234;2023-09-07T01:40:01;10.90;;;7.53;;
21356;SDS011;10836;53.068;18.234;2023-09-07T01:42:30;8.07;;;6.10;;
21356;SDS011;10836;53.068;18.234;2023-09-07T01:44:57;11.45;;;7.90;;
21356;SDS011;10836;53.068;18.234;2023-09-07T01:47:24;11.30;;;7.47;;
21356;SDS011;10836;53.068;18.234;2023-09-07T01:49:52;11.77;;;6.88;;
21356;SDS011;10836;53.068;18.234;2023-09-07T01:52:18;10.95;;;8.07;;
21356;SDS011;10836;53.068;18.234;2023-09-07T01:54:46;10.73;;;7.05;;
21356;SDS011;10836;53.068;18.234;2023-09-07T01:57:12;14.00;;;6.95;;
21356;SDS011;10836;53.068;18.234;2023-09-07T01:59:40;10.15;;;7.53;;
21356;SDS011;10836;53.068;18.234;2023-09-07T02:02:06;10.15;;;7.13;;
21356;SDS011;10836;53.068;18.234;2023-09-07T02:04:34;9.88;;;6.75;;
21356;SDS011;10836;53.068;18.234;2023-09-07T02:07:00;9.68;;;7.35;;
21356;SDS011;10836;53.068;18.234;2023-09-07T02:09:27;12.85;;;6.60;;
21356;SDS011;10836;53.068;18.234;2023-09-07T02:11:55;11.10;;;7.35;;
21356;SDS011;10836;53.068;18.234;2023-09-07T02:14:23;10.85;;;7.30;;
21356;SDS011;10836;53.068;18.234;2023-09-07T02:16:49;9.40;;;6.68;;
21356;SDS011;10836;53.068;18.234;2023-09-07T02:19:17;10.65;;;7.35;;
21356;SDS011;10836;53.068;18.234;2023-09-07T02:21:44;12.10;;;7.15;;
21356;SDS011;10836;53.068;18.234;2023-09-07T02:24:11;13.05;;;6.63;;
21356;SDS011;10836;53.068;18.234;2023-09-07T02:26:38;8.55;;;6.15;;
21356;SDS011;10836;53.068;18.234;2023-09-07T02:29:12;14.15;;;6.78;;
21356;SDS011;10836;53.068;18.234;2023-09-07T02:31:39;8.98;;;6.63;;
21356;SDS011;10836;53.068;18.234;2023-09-07T02:34:07;10.88;;;6.80;;
21356;SDS011;10836;53.068;18.234;2023-09-07T02:36:34;10.05;;;6.85;;
21356;SDS011;10836;53.068;18.234;2023-09-07T02:39:02;10.13;;;6.43;;
21356;SDS011;10836;53.068;18.234;2023-09-07T02:41:31;12.57;;;7.40;;
21356;SDS011;10836;53.068;18.234;2023-09-07T02:43:58;16.55;;;7.40;;
21356;SDS011;10836;53.068;18.234;2023-09-07T02:46:25;11.27;;;7.28;;
21356;SDS011;10836;53.068;18.234;2023-09-07T02:48:52;9.15;;;6.65;;
21356;SDS011;10836;53.068;18.234;2023-09-07T02:51:24;9.95;;;7.03;;
21356;SDS011;10836;53.068;18.234;2023-09-07T02:53:55;10.02;;;6.85;;
21356;SDS011;10836;53.068;18.234;2023-09-07T02:56:22;10.55;;;7.40;;
21356;SDS011;10836;53.068;18.234;2023-09-07T02:58:50;11.57;;;7.28;;
21356;SDS011;10836;53.068;18.234;2023-09-07T03:01:16;13.90;;;8.13;;
21356;SDS011;10836;53.068;18.234;2023-09-07T03:03:47;9.68;;;7.22;;
21356;SDS011;10836;53.068;18.234;2023-09-07T03:06:14;12.05;;;7.18;;
21356;SDS011;10836;53.068;18.234;2023-09-07T03:08:46;15.90;;;8.23;;
21356;SDS011;10836;53.068;18.234;2023-09-07T03:11:13;19.63;;;11.95;;
21356;SDS011;10836;53.068;18.234;2023-09-07T03:13:40;19.52;;;11.98;;
21356;SDS011;10836;53.068;18.234;2023-09-07T03:16:10;19.85;;;10.77;;
21356;SDS011;10836;53.068;18.234;2023-09-07T03:18:38;15.32;;;9.95;;
21356;SDS011;10836;53.068;18.234;2023-09-07T03:21:05;23.73;;;11.40;;
21356;SDS011;10836;53.068;18.234;2023-09-07T03:23:32;16.88;;;10.95;;
21356;SDS011;10836;53.068;18.234;2023-09-07T03:26:01;20.67;;;13.15;;
21356;SDS011;10836;53.068;18.234;2023-09-07T03:28:29;16.42;;;10.88;;
21356;SDS011;10836;53.068;18.234;2023-09-07T03:30:57;16.98;;;11.73;;
21356;SDS011;10836;53.068;18.234;2023-09-07T03:33:24;19.42;;;12.02;;
21356;SDS011;10836;53.068;18.234;2023-09-07T03:35:51;19.27;;;11.93;;
21356;SDS011;10836;53.068;18.234;2023-09-07T03:38:18;19.77;;;11.85;;
21356;SDS011;10836;53.068;18.234;2023-09-07T03:40:45;23.40;;;14.18;;
21356;SDS011;10836;53.068;18.234;2023-09-07T03:43:12;21.98;;;14.43;;
21356;SDS011;10836;53.068;18.234;2023-09-07T03:45:39;19.88;;;13.73;;
21356;SDS011;10836;53.068;18.234;2023-09-07T03:48:07;23.60;;;14.35;;
21356;SDS011;10836;53.068;18.234;2023-09-07T03:50:35;19.92;;;13.85;;
21356;SDS011;10836;53.068;18.234;2023-09-07T03:53:04;16.30;;;12.38;;
21356;SDS011;10836;53.068;18.234;2023-09-07T03:55:39;19.10;;;12.95;;
21356;SDS011;10836;53.068;18.234;2023-09-07T03:58:11;17.73;;;12.80;;
21356;SDS011;10836;53.068;18.234;2023-09-07T04:00:43;17.05;;;11.93;;
21356;SDS011;10836;53.068;18.234;2023-09-07T04:03:11;19.33;;;12.85;;
21356;SDS011;10836;53.068;18.234;2023-09-07T04:05:39;22.27;;;12.40;;
21356;SDS011;10836;53.068;18.234;2023-09-07T04:08:06;18.83;;;12.45;;
21356;SDS011;10836;53.068;18.234;2023-09-07T04:10:36;16.17;;;11.73;;
21356;SDS011;10836;53.068;18.234;2023-09-07T04:13:04;15.80;;;11.30;;
21356;SDS011;10836;53.068;18.234;2023-09-07T04:15:31;19.92;;;12.40;;
21356;SDS011;10836;53.068;18.234;2023-09-07T04:17:58;21.08;;;13.02;;
21356;SDS011;10836;53.068;18.234;2023-09-07T04:20:25;27.65;;;15.20;;
21356;SDS011;10836;53.068;18.234;2023-09-07T04:22:55;31.67;;;16.60;;
21356;SDS011;10836;53.068;18.234;2023-09-07T04:25:22;36.08;;;16.10;;
21356;SDS011;10836;53.068;18.234;2023-09-07T04:27:49;46.38;;;17.20;;
21356;SDS011;10836;53.068;18.234;2023-09-07T04:30:17;40.75;;;18.40;;
21356;SDS011;10836;53.068;18.234;2023-09-07T04:32:45;40.30;;;18.83;;
21356;SDS011;10836;53.068;18.234;2023-09-07T04:35:12;36.20;;;17.92;;
21356;SDS011;10836;53.068;18.234;2023-09-07T04:37:41;27.67;;;16.65;;
21356;SDS011;10836;53.068;18.234;2023-09-07T04:40:10;33.85;;;19.58;;
21356;SDS011;10836;53.068;18.234;2023-09-07T04:42:37;35.55;;;18.58;;
21356;SDS011;10836;53.068;18.234;2023-09-07T04:45:05;37.95;;;20.38;;
21356;SDS011;10836;53.068;18.234;2023-09-07T04:47:36;38.72;;;20.02;;
21356;SDS011;10836;53.068;18.234;2023-09-07T04:50:03;45.33;;;22.00;;
21356;SDS011;10836;53.068;18.234;2023-09-07T04:52:31;44.60;;;22.95;;
21356;SDS011;10836;53.068;18.234;2023-09-07T04:54:58;44.47;;;24.38;;
21356;SDS011;10836;53.068;18.234;2023-09-07T04:57:26;47.60;;;25.33;;
21356;SDS011;10836;53.068;18.234;2023-09-07T04:59:52;57.72;;;26.13;;
21356;SDS011;10836;53.068;18.234;2023-09-07T05:02:20;64.03;;;27.30;;
21356;SDS011;10836;53.068;18.234;2023-09-07T05:04:47;51.75;;;24.85;;
21356;SDS011;10836;53.068;18.234;2023-09-07T05:07:14;59.08;;;26.50;;
21356;SDS011;10836;53.068;18.234;2023-09-07T05:09:41;56.65;;;23.77;;
21356;SDS011;10836;53.068;18.234;2023-09-07T05:12:08;62.30;;;25.75;;
21356;SDS011;10836;53.068;18.234;2023-09-07T05:14:35;59.65;;;25.58;;
21356;SDS011;10836;53.068;18.234;2023-09-07T05:17:03;90.35;;;27.80;;
21356;SDS011;10836;53.068;18.234;2023-09-07T05:19:30;65.35;;;25.48;;
21356;SDS011;10836;53.068;18.234;2023-09-07T05:21:57;77.25;;;26.10;;
21356;SDS011;10836;53.068;18.234;2023-09-07T05:24:25;63.63;;;26.40;;
21356;SDS011;10836;53.068;18.234;2023-09-07T05:26:53;56.33;;;24.83;;
21356;SDS011;10836;53.068;18.234;2023-09-07T05:29:20;35.92;;;21.65;;
21356;SDS011;10836;53.068;18.234;2023-09-07T05:31:48;25.42;;;17.08;;
21356;SDS011;10836;53.068;18.234;2023-09-07T05:34:15;24.52;;;17.88;;
21356;SDS011;10836;53.068;18.234;2023-09-07T05:36:42;24.40;;;17.42;;
21356;SDS011;10836;53.068;18.234;2023-09-07T05:39:09;20.40;;;15.05;;
21356;SDS011;10836;53.068;18.234;2023-09-07T05:41:36;20.15;;;15.27;;
21356;SDS011;10836;53.068;18.234;2023-09-07T05:44:03;22.67;;;17.05;;
21356;SDS011;10836;53.068;18.234;2023-09-07T05:46:31;22.90;;;17.30;;
21356;SDS011;10836;53.068;18.234;2023-09-07T05:48:58;24.05;;;16.00;;
21356;SDS011;10836;53.068;18.234;2023-09-07T05:51:25;23.27;;;15.73;;
21356;SDS011;10836;53.068;18.234;2023-09-07T05:53:53;21.23;;;16.08;;
21356;SDS011;10836;53.068;18.234;2023-09-07T05:56:22;19.60;;;14.68;;
21356;SDS011;10836;53.068;18.234;2023-09-07T05:58:49;20.85;;;15.77;;
21356;SDS011;10836;53.068;18.234;2023-09-07T06:01:16;24.58;;;17.10;;
21356;SDS011;10836;53.068;18.234;2023-09-07T06:03:43;19.92;;;15.43;;
21356;SDS011;10836;53.068;18.234;2023-09-07T06:06:10;24.95;;;16.88;;
21356;SDS011;10836;53.068;18.234;2023-09-07T06:08:37;21.13;;;15.32;;
21356;SDS011;10836;53.068;18.234;2023-09-07T06:11:04;18.17;;;13.70;;
21356;SDS011;10836;53.068;18.234;2023-09-07T06:13:32;20.48;;;15.18;;
21356;SDS011;10836;53.068;18.234;2023-09-07T06:15:59;24.17;;;16.08;;
21356;SDS011;10836;53.068;18.234;2023-09-07T06:18:27;21.85;;;16.25;;
21356;SDS011;10836;53.068;18.234;2023-09-07T06:20:55;21.23;;;15.90;;
21356;SDS011;10836;53.068;18.234;2023-09-07T06:23:22;24.90;;;16.70;;
21356;SDS011;10836;53.068;18.234;2023-09-07T06:25:49;22.80;;;17.17;;
21356;SDS011;10836;53.068;18.234;2023-09-07T06:28:16;23.25;;;17.73;;
21356;SDS011;10836;53.068;18.234;2023-09-07T06:30:44;24.67;;;17.70;;
21356;SDS011;10836;53.068;18.234;2023-09-07T06:33:11;19.88;;;13.57;;
21356;SDS011;10836;53.068;18.234;2023-09-07T06:35:38;19.58;;;14.38;;
21356;SDS011;10836;53.068;18.234;2023-09-07T06:38:05;17.75;;;14.30;;
21356;SDS011;10836;53.068;18.234;2023-09-07T06:40:32;17.48;;;14.10;;
21356;SDS011;10836;53.068;18.234;2023-09-07T06:42:59;18.20;;;14.20;;
21356;SDS011;10836;53.068;18.234;2023-09-07T06:45:27;18.30;;;13.02;;
21356;SDS011;10836;53.068;18.234;2023-09-07T06:47:54;16.52;;;13.27;;
21356;SDS011;10836;53.068;18.234;2023-09-07T06:50:24;15.20;;;11.98;;
21356;SDS011;10836;53.068;18.234;2023-09-07T06:52:51;16.08;;;12.75;;
21356;SDS011;10836;53.068;18.234;2023-09-07T06:55:19;15.10;;;11.10;;
21356;SDS011;10836;53.068;18.234;2023-09-07T06:57:47;15.98;;;11.77;;
21356;SDS011;10836;53.068;18.234;2023-09-07T07:00:14;16.25;;;10.98;;
21356;SDS011;10836;53.068;18.234;2023-09-07T07:02:42;19.45;;;12.32;;
21356;SDS011;10836;53.068;18.234;2023-09-07T07:05:10;13.93;;;11.45;;
21356;SDS011;10836;53.068;18.234;2023-09-07T07:07:37;18.70;;;13.20;;
21356;SDS011;10836;53.068;18.234;2023-09-07T07:10:05;17.42;;;12.88;;
21356;SDS011;10836;53.068;18.234;2023-09-07T07:12:35;19.15;;;14.02;;
21356;SDS011;10836;53.068;18.234;2023-09-07T07:15:05;21.20;;;15.23;;
21356;SDS011;10836;53.068;18.234;2023-09-07T07:17:34;18.17;;;14.15;;
21356;SDS011;10836;53.068;18.234;2023-09-07T07:20:02;18.58;;;12.75;;
21356;SDS011;10836;53.068;18.234;2023-09-07T07:22:29;15.48;;;10.60;;
21356;SDS011;10836;53.068;18.234;2023-09-07T07:24:56;11.88;;;9.15;;
21356;SDS011;10836;53.068;18.234;2023-09-07T07:27:25;24.02;;;18.95;;
21356;SDS011;10836;53.068;18.234;2023-09-07T07:29:53;23.35;;;17.77;;
21356;SDS011;10836;53.068;18.234;2023-09-07T07:32:21;16.67;;;12.13;;
21356;SDS011;10836;53.068;18.234;2023-09-07T07:34:49;16.40;;;10.90;;
21356;SDS011;10836;53.068;18.234;2023-09-07T07:37:16;16.63;;;10.57;;
21356;SDS011;10836;53.068;18.234;2023-09-07T07:39:43;11.85;;;8.18;;
21356;SDS011;10836;53.068;18.234;2023-09-07T07:42:11;11.55;;;7.18;;
21356;SDS011;10836;53.068;18.234;2023-09-07T07:44:40;11.10;;;7.50;;
21356;SDS011;10836;53.068;18.234;2023-09-07T07:47:07;13.13;;;7.85;;
21356;SDS011;10836;53.068;18.234;2023-09-07T07:49:35;11.27;;;7.25;;
21356;SDS011;10836;53.068;18.234;2023-09-07T07:52:03;9.90;;;7.50;;
21356;SDS011;10836;53.068;18.234;2023-09-07T07:54:32;8.73;;;6.75;;
21356;SDS011;10836;53.068;18.234;2023-09-07T07:57:01;7.82;;;5.22;;
21356;SDS011;10836;53.068;18.234;2023-09-07T07:59:28;8.13;;;5.70;;
21356;SDS011;10836;53.068;18.234;2023-09-07T08:01:55;8.55;;;6.03;;
21356;SDS011;10836;53.068;18.234;2023-09-07T08:04:22;8.05;;;6.05;;
21356;SDS011;10836;53.068;18.234;2023-09-07T08:06:49;10.93;;;6.53;;
21356;SDS011;10836;53.068;18.234;2023-09-07T08:09:16;8.63;;;5.47;;
21356;SDS011;10836;53.068;18.234;2023-09-07T08:11:44;7.97;;;5.80;;
21356;SDS011;10836;53.068;18.234;2023-09-07T08:14:11;9.25;;;6.55;;
21356;SDS011;10836;53.068;18.234;2023-09-07T08:16:38;11.20;;;7.43;;
21356;SDS011;10836;53.068;18.234;2023-09-07T08:19:07;9.30;;;6.30;;
21356;SDS011;10836;53.068;18.234;2023-09-07T08:21:34;7.50;;;5.20;;
21356;SDS011;10836;53.068;18.234;2023-09-07T08:24:02;9.30;;;6.13;;
21356;SDS011;10836;53.068;18.234;2023-09-07T08:26:30;11.25;;;5.90;;
21356;SDS011;10836;53.068;18.234;2023-09-07T08:28:57;7.38;;;5.18;;
21356;SDS011;10836;53.068;18.234;2023-09-07T08:31:24;8.30;;;5.35;;
21356;SDS011;10836;53.068;18.234;2023-09-07T08:33:51;9.13;;;5.57;;
21356;SDS011;10836;53.068;18.234;2023-09-07T08:36:18;7.57;;;5.70;;
21356;SDS011;10836;53.068;18.234;2023-09-07T08:38:52;7.20;;;4.90;;
21356;SDS011;10836;53.068;18.234;2023-09-07T08:41:22;12.02;;;6.00;;
21356;SDS011;10836;53.068;18.234;2023-09-07T08:43:50;7.18;;;5.45;;
21356;SDS011;10836;53.068;18.234;2023-09-07T08:46:20;8.60;;;5.57;;
21356;SDS011;10836;53.068;18.234;2023-09-07T08:48:50;8.35;;;4.70;;
21356;SDS011;10836;53.068;18.234;2023-09-07T08:51:18;11.20;;;5.40;;
21356;SDS011;10836;53.068;18.234;2023-09-07T08:53:46;10.98;;;5.13;;
21356;SDS011;10836;53.068;18.234;2023-09-07T08:56:14;8.30;;;5.50;;
21356;SDS011;10836;53.068;18.234;2023-09-07T08:58:43;11.07;;;5.60;;
21356;SDS011;10836;53.068;18.234;2023-09-07T09:01:16;7.97;;;5.22;;
21356;SDS011;10836;53.068;18.234;2023-09-07T09:03:43;9.38;;;5.38;;
21356;SDS011;10836;53.068;18.234;2023-09-07T09:06:12;8.30;;;5.38;;
21356;SDS011;10836;53.068;18.234;2023-09-07T09:08:44;9.05;;;4.40;;
21356;SDS011;10836;53.068;18.234;2023-09-07T09:11:16;9.55;;;4.40;;
21356;SDS011;10836;53.068;18.234;2023-09-07T09:13:44;7.43;;;4.80;;
21356;SDS011;10836;53.068;18.234;2023-09-07T09:16:12;9.30;;;5.20;;
21356;SDS011;10836;53.068;18.234;2023-09-07T09:18:52;9.90;;;5.53;;
21356;SDS011;10836;53.068;18.234;2023-09-07T09:21:23;9.77;;;5.82;;
21356;SDS011;10836;53.068;18.234;2023-09-07T09:23:52;12.43;;;5.03;;
21356;SDS011;10836;53.068;18.234;2023-09-07T09:26:21;11.68;;;4.28;;
21356;SDS011;10836;53.068;18.234;2023-09-07T09:28:55;7.95;;;5.45;;
21356;SDS011;10836;53.068;18.234;2023-09-07T09:31:23;11.70;;;4.57;;
21356;SDS011;10836;53.068;18.234;2023-09-07T09:33:51;8.85;;;5.05;;
21356;SDS011;10836;53.068;18.234;2023-09-07T09:36:19;6.80;;;4.07;;
21356;SDS011;10836;53.068;18.234;2023-09-07T09:38:50;7.13;;;3.97;;
21356;SDS011;10836;53.068;18.234;2023-09-07T09:41:20;5.22;;;3.47;;
21356;SDS011;10836;53.068;18.234;2023-09-07T09:43:50;5.85;;;3.58;;
21356;SDS011;10836;53.068;18.234;2023-09-07T09:46:18;7.40;;;3.55;;
21356;SDS011;10836;53.068;18.234;2023-09-07T09:48:45;7.65;;;3.85;;
21356;SDS011;10836;53.068;18.234;2023-09-07T09:51:14;6.95;;;3.47;;
21356;SDS011;10836;53.068;18.234;2023-09-07T09:53:42;7.80;;;3.47;;
21356;SDS011;10836;53.068;18.234;2023-09-07T09:56:09;6.07;;;3.10;;
21356;SDS011;10836;53.068;18.234;2023-09-07T09:58:37;3.92;;;3.20;;
21356;SDS011;10836;53.068;18.234;2023-09-07T10:01:04;15.07;;;3.60;;
21356;SDS011;10836;53.068;18.234;2023-09-07T10:03:36;13.00;;;3.40;;
21356;SDS011;10836;53.068;18.234;2023-09-07T10:06:20;7.05;;;3.10;;
21356;SDS011;10836;53.068;18.234;2023-09-07T10:08:52;5.65;;;3.00;;
21356;SDS011;10836;53.068;18.234;2023-09-07T10:11:30;7.43;;;2.95;;
21356;SDS011;10836;53.068;18.234;2023-09-07T10:14:02;6.53;;;3.00;;
21356;SDS011;10836;53.068;18.234;2023-09-07T10:19:26;4.93;;;2.58;;
21356;SDS011;10836;53.068;18.234;2023-09-07T10:21:54;7.95;;;2.67;;
21356;SDS011;10836;53.068;18.234;2023-09-07T10:27:12;9.18;;;2.97;;
21356;SDS011;10836;53.068;18.234;2023-09-07T10:29:40;9.70;;;2.92;;
21356;SDS011;10836;53.068;18.234;2023-09-07T10:32:08;6.70;;;2.88;;
21356;SDS011;10836;53.068;18.234;2023-09-07T10:34:39;3.83;;;2.60;;
21356;SDS011;10836;53.068;18.234;2023-09-07T10:37:13;4.43;;;2.70;;
21356;SDS011;10836;53.068;18.234;2023-09-07T10:39:42;8.00;;;3.47;;
21356;SDS011;10836;53.068;18.234;2023-09-07T10:42:20;6.65;;;2.67;;
21356;SDS011;10836;53.068;18.234;2023-09-07T10:44:52;6.53;;;2.80;;
21356;SDS011;10836;53.068;18.234;2023-09-07T10:47:20;7.10;;;2.70;;
21356;SDS011;10836;53.068;18.234;2023-09-07T10:49:47;3.90;;;2.20;;
21356;SDS011;10836;53.068;18.234;2023-09-07T10:52:14;8.50;;;2.85;;
21356;SDS011;10836;53.068;18.234;2023-09-07T10:54:41;5.18;;;2.78;;
21356;SDS011;10836;53.068;18.234;2023-09-07T10:57:09;7.90;;;2.40;;
21356;SDS011;10836;53.068;18.234;2023-09-07T10:59:37;7.10;;;2.60;;
21356;SDS011;10836;53.068;18.234;2023-09-07T11:02:04;4.43;;;2.50;;
21356;SDS011;10836;53.068;18.234;2023-09-07T11:04:34;8.30;;;2.50;;
21356;SDS011;10836;53.068;18.234;2023-09-07T11:07:01;4.72;;;2.67;;
21356;SDS011;10836;53.068;18.234;2023-09-07T11:09:31;8.45;;;2.63;;
21356;SDS011;10836;53.068;18.234;2023-09-07T11:12:07;8.07;;;2.33;;
21356;SDS011;10836;53.068;18.234;2023-09-07T11:14:35;4.15;;;2.38;;
21356;SDS011;10836;53.068;18.234;2023-09-07T11:17:02;3.40;;;2.40;;
21356;SDS011;10836;53.068;18.234;2023-09-07T11:19:33;10.93;;;2.60;;
21356;SDS011;10836;53.068;18.234;2023-09-07T11:22:01;7.05;;;2.70;;
21356;SDS011;10836;53.068;18.234;2023-09-07T11:24:34;5.38;;;2.65;;
21356;SDS011;10836;53.068;18.234;2023-09-07T11:27:02;5.20;;;1.95;;
21356;SDS011;10836;53.068;18.234;2023-09-07T11:29:32;7.22;;;2.70;;
21356;SDS011;10836;53.068;18.234;2023-09-07T11:32:08;7.95;;;2.50;;
21356;SDS011;10836;53.068;18.234;2023-09-07T11:34:46;5.43;;;2.63;;
21356;SDS011;10836;53.068;18.234;2023-09-07T11:37:18;13.20;;;3.00;;
21356;SDS011;10836;53.068;18.234;2023-09-07T11:39:50;6.72;;;2.85;;
21356;SDS011;10836;53.068;18.234;2023-09-07T11:42:17;6.68;;;2.80;;
21356;SDS011;10836;53.068;18.234;2023-09-07T11:44:44;5.78;;;2.70;;
21356;SDS011;10836;53.068;18.234;2023-09-07T11:47:11;7.35;;;2.75;;
21356;SDS011;10836;53.068;18.234;2023-09-07T11:49:38;12.68;;;3.75;;
21356;SDS011;10836;53.068;18.234;2023-09-07T11:52:05;13.25;;;3.13;;
21356;SDS011;10836;53.068;18.234;2023-09-07T11:54:32;6.35;;;2.53;;
21356;SDS011;10836;53.068;18.234;2023-09-07T11:56:59;4.05;;;2.78;;
21356;SDS011;10836;53.068;18.234;2023-09-07T11:59:26;6.18;;;2.60;;
21356;SDS011;10836;53.068;18.234;2023-09-07T12:01:59;8.75;;;2.88;;
21356;SDS011;10836;53.068;18.234;2023-09-07T12:04:26;5.80;;;2.58;;
21356;SDS011;10836;53.068;18.234;2023-09-07T12:06:53;9.07;;;2.70;;
21356;SDS011;10836;53.068;18.234;2023-09-07T12:09:20;5.55;;;2.08;;
21356;SDS011;10836;53.068;18.234;2023-09-07T12:11:47;8.30;;;2.58;;
21356;SDS011;10836;53.068;18.234;2023-09-07T12:14:15;5.03;;;2.78;;
21356;SDS011;10836;53.068;18.234;2023-09-07T12:16:42;7.28;;;3.17;;
21356;SDS011;10836;53.068;18.234;2023-09-07T12:19:09;6.93;;;3.08;;
21356;SDS011;10836;53.068;18.234;2023-09-07T12:21:36;3.75;;;2.42;;
21356;SDS011;10836;53.068;18.234;2023-09-07T12:24:03;7.38;;;2.78;;
21356;SDS011;10836;53.068;18.234;2023-09-07T12:26:30;6.07;;;2.65;;
21356;SDS011;10836;53.068;18.234;2023-09-07T12:28:58;13.73;;;3.35;;
21356;SDS011;10836;53.068;18.234;2023-09-07T12:31:25;4.43;;;2.95;;
21356;SDS011;10836;53.068;18.234;2023-09-07T12:33:52;17.75;;;4.32;;
21356;SDS011;10836;53.068;18.234;2023-09-07T12:36:18;26.45;;;4.75;;
21356;SDS011;10836;53.068;18.234;2023-09-07T12:38:48;12.85;;;3.28;;
21356;SDS011;10836;53.068;18.234;2023-09-07T12:41:15;7.43;;;3.08;;
21356;SDS011;10836;53.068;18.234;2023-09-07T12:43:43;4.97;;;2.80;;
21356;SDS011;10836;53.068;18.234;2023-09-07T12:46:09;7.95;;;2.72;;
21356;SDS011;10836;53.068;18.234;2023-09-07T12:48:36;4.35;;;2.45;;
21356;SDS011;10836;53.068;18.234;2023-09-07T12:51:03;5.72;;;2.60;;
21356;SDS011;10836;53.068;18.234;2023-09-07T12:53:31;7.18;;;3.20;;
21356;SDS011;10836;53.068;18.234;2023-09-07T12:55:58;5.85;;;2.75;;
21356;SDS011;10836;53.068;18.234;2023-09-07T12:58:25;5.03;;;2.90;;
21356;SDS011;10836;53.068;18.234;2023-09-07T13:00:52;6.32;;;3.08;;
21356;SDS011;10836;53.068;18.234;2023-09-07T13:03:19;7.80;;;3.30;;
21356;SDS011;10836;53.068;18.234;2023-09-07T13:05:47;8.10;;;3.05;;
21356;SDS011;10836;53.068;18.234;2023-09-07T13:08:15;6.20;;;3.03;;
21356;SDS011;10836;53.068;18.234;2023-09-07T13:10:42;5.60;;;3.05;;
21356;SDS011;10836;53.068;18.234;2023-09-07T13:13:09;4.38;;;2.80;;
21356;SDS011;10836;53.068;18.234;2023-09-07T13:15:36;10.35;;;3.33;;
21356;SDS011;10836;53.068;18.234;2023-09-07T13:18:03;5.97;;;2.78;;
21356;SDS011;10836;53.068;18.234;2023-09-07T13:20:31;4.72;;;2.67;;
21356;SDS011;10836;53.068;18.234;2023-09-07T13:22:58;8.93;;;2.92;;
21356;SDS011;10836;53.068;18.234;2023-09-07T13:25:25;7.80;;;3.10;;
21356;SDS011;10836;53.068;18.234;2023-09-07T13:27:52;5.90;;;2.90;;
21356;SDS011;10836;53.068;18.234;2023-09-07T13:30:19;6.32;;;2.42;;
21356;SDS011;10836;53.068;18.234;2023-09-07T13:32:46;7.00;;;2.85;;
21356;SDS011;10836;53.068;18.234;2023-09-07T13:35:14;9.82;;;3.55;;
21356;SDS011;10836;53.068;18.234;2023-09-07T13:37:41;5.95;;;2.85;;
21356;SDS011;10836;53.068;18.234;2023-09-07T13:40:08;5.05;;;2.63;;
21356;SDS011;10836;53.068;18.234;2023-09-07T13:42:36;5.18;;;2.83;;
21356;SDS011;10836;53.068;18.234;2023-09-07T13:45:05;6.05;;;2.65;;
21356;SDS011;10836;53.068;18.234;2023-09-07T13:47:33;6.90;;;3.17;;
21356;SDS011;10836;53.068;18.234;2023-09-07T13:50:00;4.05;;;2.83;;
21356;SDS011;10836;53.068;18.234;2023-09-07T13:52:27;5.65;;;2.80;;
21356;SDS011;10836;53.068;18.234;2023-09-07T13:54:54;7.50;;;3.08;;
21356;SDS011;10836;53.068;18.234;2023-09-07T13:57:21;5.38;;;2.80;;
21356;SDS011;10836;53.068;18.234;2023-09-07T13:59:49;7.13;;;2.90;;
21356;SDS011;10836;53.068;18.234;2023-09-07T14:02:16;11.05;;;2.78;;
21356;SDS011;10836;53.068;18.234;2023-09-07T14:04:43;6.40;;;3.08;;
21356;SDS011;10836;53.068;18.234;2023-09-07T14:07:10;4.25;;;3.15;;
21356;SDS011;10836;53.068;18.234;2023-09-07T14:09:36;7.35;;;3.17;;
21356;SDS011;10836;53.068;18.234;2023-09-07T14:12:04;6.10;;;3.25;;
21356;SDS011;10836;53.068;18.234;2023-09-07T14:14:31;7.65;;;3.08;;
21356;SDS011;10836;53.068;18.234;2023-09-07T14:16:58;6.47;;;3.40;;
21356;SDS011;10836;53.068;18.234;2023-09-07T14:19:26;5.43;;;3.42;;
21356;SDS011;10836;53.068;18.234;2023-09-07T14:21:58;10.10;;;3.00;;
21356;SDS011;10836;53.068;18.234;2023-09-07T14:24:25;10.75;;;4.53;;
21356;SDS011;10836;53.068;18.234;2023-09-07T14:26:53;7.68;;;3.45;;
21356;SDS011;10836;53.068;18.234;2023-09-07T14:29:19;7.65;;;3.10;;
21356;SDS011;10836;53.068;18.234;2023-09-07T14:31:47;7.82;;;3.30;;
21356;SDS011;10836;53.068;18.234;2023-09-07T14:34:13;7.13;;;3.33;;